sensor_id;sensor_type;location;lat;lon;timestamp;temperature;humidity
39695;DHT22;25367;-35.352;149.036;2023-05-19T00:01:51;18.00;58.10
39695;DHT22;25367;-35.352;149.036;2023-05-19T00:04:21;18.00;58.10
39695;DHT22;25367;-35.352;149.036;2023-05-19T00:06:51;18.10;58.10
39695;DHT22;25367;-35.352;149.036;2023-05-19T00:09:25;18.10;58.10
39695;DHT22;25367;-35.352;149.036;2023-05-19T00:11:55;18.10;58.20
39695;DHT22;25367;-35.352;149.036;2023-05-19T00:14:25;18.10;58.10
39695;DHT22;25367;-35.352;149.036;2023-05-19T00:16:55;18.20;58.10
39695;DHT22;25367;-35.352;149.036;2023-05-19T00:19:25;18.20;58.20
39695;DHT22;25367;-35.352;149.036;2023-05-19T00:21:54;18.20;58.10
39695;DHT22;25367;-35.352;149.036;2023-05-19T00:24:27;18.30;58.20
39695;DHT22;25367;-35.352;149.036;2023-05-19T00:26:57;18.30;58.20
39695;DHT22;25367;-35.352;149.036;2023-05-19T00:29:26;18.30;58.20
39695;DHT22;25367;-35.352;149.036;2023-05-19T00:31:56;18.30;58.20
39695;DHT22;25367;-35.352;149.036;2023-05-19T00:34:26;18.40;58.10
39695;DHT22;25367;-35.352;149.036;2023-05-19T00:36:55;18.40;58.10
39695;DHT22;25367;-35.352;149.036;2023-05-19T00:39:28;18.40;58.00
39695;DHT22;25367;-35.352;149.036;2023-05-19T00:41:57;18.40;57.90
39695;DHT22;25367;-35.352;149.036;2023-05-19T00:44:27;18.50;58.00
39695;DHT22;25367;-35.352;149.036;2023-05-19T00:46:56;18.50;58.10
39695;DHT22;25367;-35.352;149.036;2023-05-19T00:49:26;18.60;58.10
39695;DHT22;25367;-35.352;149.036;2023-05-19T00:51:56;18.70;58.10
39695;DHT22;25367;-35.352;149.036;2023-05-19T00:54:29;18.80;58.20
39695;DHT22;25367;-35.352;149.036;2023-05-19T00:56:59;18.90;58.20
39695;DHT22;25367;-35.352;149.036;2023-05-19T00:59:29;19.00;58.20
39695;DHT22;25367;-35.352;149.036;2023-05-19T01:01:58;19.10;58.20
39695;DHT22;25367;-35.352;149.036;2023-05-19T01:04:28;19.20;58.20
39695;DHT22;25367;-35.352;149.036;2023-05-19T01:06:58;19.30;58.00
39695;DHT22;25367;-35.352;149.036;2023-05-19T01:09:31;19.30;57.90
39695;DHT22;25367;-35.352;149.036;2023-05-19T01:12:01;19.40;57.80
39695;DHT22;25367;-35.352;149.036;2023-05-19T01:14:30;19.40;57.70
39695;DHT22;25367;-35.352;149.036;2023-05-19T01:17:08;19.50;57.70
39695;DHT22;25367;-35.352;149.036;2023-05-19T01:19:56;19.60;57.60
39695;DHT22;25367;-35.352;149.036;2023-05-19T01:22:38;19.60;57.50
39695;DHT22;25367;-35.352;149.036;2023-05-19T01:31:13;19.70;57.40
39695;DHT22;25367;-35.352;149.036;2023-05-19T01:33:43;19.70;57.30
39695;DHT22;25367;-35.352;149.036;2023-05-19T01:36:15;19.80;57.30
39695;DHT22;25367;-35.352;149.036;2023-05-19T01:38:46;19.80;57.20
39695;DHT22;25367;-35.352;149.036;2023-05-19T01:41:16;19.80;57.30
39695;DHT22;25367;-35.352;149.036;2023-05-19T01:43:47;19.80;57.10
39695;DHT22;25367;-35.352;149.036;2023-05-19T01:46:21;19.90;57.00
39695;DHT22;25367;-35.352;149.036;2023-05-19T01:48:52;19.90;57.00
39695;DHT22;25367;-35.352;149.036;2023-05-19T01:51:23;19.90;56.90
39695;DHT22;25367;-35.352;149.036;2023-05-19T01:53:52;19.90;56.90
39695;DHT22;25367;-35.352;149.036;2023-05-19T01:56:28;19.90;56.70
39695;DHT22;25367;-35.352;149.036;2023-05-19T01:59:14;20.00;56.80
39695;DHT22;25367;-35.352;149.036;2023-05-19T02:01:52;20.00;56.80
39695;DHT22;25367;-35.352;149.036;2023-05-19T02:04:29;20.00;56.80
39695;DHT22;25367;-35.352;149.036;2023-05-19T02:07:07;20.10;56.80
39695;DHT22;25367;-35.352;149.036;2023-05-19T02:09:40;20.00;56.60
39695;DHT22;25367;-35.352;149.036;2023-05-19T02:12:15;20.10;56.60
39695;DHT22;25367;-35.352;149.036;2023-05-19T02:14:52;20.10;56.50
39695;DHT22;25367;-35.352;149.036;2023-05-19T02:17:27;20.10;56.50
39695;DHT22;25367;-35.352;149.036;2023-05-19T02:19:57;20.10;56.50
39695;DHT22;25367;-35.352;149.036;2023-05-19T02:22:26;20.10;56.40
39695;DHT22;25367;-35.352;149.036;2023-05-19T02:24:56;20.10;56.60
39695;DHT22;25367;-35.352;149.036;2023-05-19T02:27:26;20.20;56.30
39695;DHT22;25367;-35.352;149.036;2023-05-19T02:29:55;20.20;56.30
39695;DHT22;25367;-35.352;149.036;2023-05-19T02:32:29;20.20;56.20
39695;DHT22;25367;-35.352;149.036;2023-05-19T02:34:58;20.30;56.20
39695;DHT22;25367;-35.352;149.036;2023-05-19T02:37:28;20.20;56.20
39695;DHT22;25367;-35.352;149.036;2023-05-19T02:39:58;20.20;56.10
39695;DHT22;25367;-35.352;149.036;2023-05-19T02:42:27;20.30;56.10
39695;DHT22;25367;-35.352;149.036;2023-05-19T02:44:58;20.20;56.00
39695;DHT22;25367;-35.352;149.036;2023-05-19T02:47:31;20.30;56.10
39695;DHT22;25367;-35.352;149.036;2023-05-19T02:50:02;20.30;56.00
39695;DHT22;25367;-35.352;149.036;2023-05-19T02:52:32;20.30;55.90
39695;DHT22;25367;-35.352;149.036;2023-05-19T02:55:01;20.30;55.90
39695;DHT22;25367;-35.352;149.036;2023-05-19T02:57:31;20.40;55.90
39695;DHT22;25367;-35.352;149.036;2023-05-19T03:00:01;20.40;55.90
39695;DHT22;25367;-35.352;149.036;2023-05-19T03:02:34;20.40;55.90
39695;DHT22;25367;-35.352;149.036;2023-05-19T03:05:04;20.40;56.00
39695;DHT22;25367;-35.352;149.036;2023-05-19T03:07:34;20.40;55.90
39695;DHT22;25367;-35.352;149.036;2023-05-19T03:10:03;20.40;55.70
39695;DHT22;25367;-35.352;149.036;2023-05-19T03:12:33;20.40;55.60
39695;DHT22;25367;-35.352;149.036;2023-05-19T03:15:03;20.40;55.60
39695;DHT22;25367;-35.352;149.036;2023-05-19T03:17:35;20.40;55.80
39695;DHT22;25367;-35.352;149.036;2023-05-19T03:20:06;20.50;55.90
39695;DHT22;25367;-35.352;149.036;2023-05-19T03:22:36;20.50;56.00
39695;DHT22;25367;-35.352;149.036;2023-05-19T03:25:06;20.50;56.00
39695;DHT22;25367;-35.352;149.036;2023-05-19T03:27:35;20.50;55.90
39695;DHT22;25367;-35.352;149.036;2023-05-19T03:30:05;20.50;55.60
39695;DHT22;25367;-35.352;149.036;2023-05-19T03:32:39;20.50;55.40
39695;DHT22;25367;-35.352;149.036;2023-05-19T03:35:09;20.50;55.50
39695;DHT22;25367;-35.352;149.036;2023-05-19T03:37:38;20.50;55.40
39695;DHT22;25367;-35.352;149.036;2023-05-19T03:40:09;20.50;55.40
39695;DHT22;25367;-35.352;149.036;2023-05-19T03:42:40;20.50;56.00
39695;DHT22;25367;-35.352;149.036;2023-05-19T03:45:10;20.50;55.40
39695;DHT22;25367;-35.352;149.036;2023-05-19T03:47:44;20.60;55.40
39695;DHT22;25367;-35.352;149.036;2023-05-19T03:50:28;20.50;55.30
39695;DHT22;25367;-35.352;149.036;2023-05-19T03:53:14;20.60;55.40
39695;DHT22;25367;-35.352;149.036;2023-05-19T03:55:44;20.60;55.40
39695;DHT22;25367;-35.352;149.036;2023-05-19T03:58:15;20.60;55.30
39695;DHT22;25367;-35.352;149.036;2023-05-19T04:00:44;20.60;55.30
39695;DHT22;25367;-35.352;149.036;2023-05-19T04:03:16;20.60;55.30
39695;DHT22;25367;-35.352;149.036;2023-05-19T04:05:45;20.60;55.30
39695;DHT22;25367;-35.352;149.036;2023-05-19T04:08:14;20.60;55.30
39695;DHT22;25367;-35.352;149.036;2023-05-19T04:10:44;20.70;55.40
39695;DHT22;25367;-35.352;149.036;2023-05-19T04:13:13;20.60;55.10
39695;DHT22;25367;-35.352;149.036;2023-05-19T04:15:43;20.60;55.20
39695;DHT22;25367;-35.352;149.036;2023-05-19T04:18:16;20.60;55.10
39695;DHT22;25367;-35.352;149.036;2023-05-19T04:20:45;20.70;54.90
39695;DHT22;25367;-35.352;149.036;2023-05-19T04:23:14;20.60;54.90
39695;DHT22;25367;-35.352;149.036;2023-05-19T04:25:45;20.60;54.90
39695;DHT22;25367;-35.352;149.036;2023-05-19T04:28:15;20.70;55.00
39695;DHT22;25367;-35.352;149.036;2023-05-19T04:30:45;20.60;54.80
39695;DHT22;25367;-35.352;149.036;2023-05-19T04:33:18;20.70;54.90
39695;DHT22;25367;-35.352;149.036;2023-05-19T04:35:47;20.70;54.90
39695;DHT22;25367;-35.352;149.036;2023-05-19T04:38:17;20.60;54.80
39695;DHT22;25367;-35.352;149.036;2023-05-19T04:40:47;20.70;54.80
39695;DHT22;25367;-35.352;149.036;2023-05-19T04:43:16;20.70;54.80
39695;DHT22;25367;-35.352;149.036;2023-05-19T04:45:46;20.70;54.70
39695;DHT22;25367;-35.352;149.036;2023-05-19T04:48:20;20.70;54.70
39695;DHT22;25367;-35.352;149.036;2023-05-19T04:50:49;20.70;54.70
39695;DHT22;25367;-35.352;149.036;2023-05-19T04:53:19;20.70;54.70
39695;DHT22;25367;-35.352;149.036;2023-05-19T04:55:48;20.70;54.60
39695;DHT22;25367;-35.352;149.036;2023-05-19T04:58:18;20.70;54.60
39695;DHT22;25367;-35.352;149.036;2023-05-19T05:00:48;20.70;54.60
39695;DHT22;25367;-35.352;149.036;2023-05-19T05:03:21;20.70;54.50
39695;DHT22;25367;-35.352;149.036;2023-05-19T05:05:51;20.70;54.60
39695;DHT22;25367;-35.352;149.036;2023-05-19T05:08:21;20.70;54.50
39695;DHT22;25367;-35.352;149.036;2023-05-19T05:10:51;20.70;54.50
39695;DHT22;25367;-35.352;149.036;2023-05-19T05:13:22;20.70;54.40
39695;DHT22;25367;-35.352;149.036;2023-05-19T05:15:53;20.70;54.40
39695;DHT22;25367;-35.352;149.036;2023-05-19T05:18:26;20.70;54.30
39695;DHT22;25367;-35.352;149.036;2023-05-19T05:20:57;20.70;54.30
39695;DHT22;25367;-35.352;149.036;2023-05-19T05:23:27;20.70;54.30
39695;DHT22;25367;-35.352;149.036;2023-05-19T05:25:57;20.70;54.20
39695;DHT22;25367;-35.352;149.036;2023-05-19T05:28:26;20.70;54.20
39695;DHT22;25367;-35.352;149.036;2023-05-19T05:30:56;20.70;54.10
39695;DHT22;25367;-35.352;149.036;2023-05-19T05:33:29;20.70;54.10
39695;DHT22;25367;-35.352;149.036;2023-05-19T05:35:59;20.70;54.10
39695;DHT22;25367;-35.352;149.036;2023-05-19T05:38:30;20.70;54.10
39695;DHT22;25367;-35.352;149.036;2023-05-19T05:41:01;20.70;54.10
39695;DHT22;25367;-35.352;149.036;2023-05-19T05:43:31;20.70;54.00
39695;DHT22;25367;-35.352;149.036;2023-05-19T05:46:04;20.70;54.00
39695;DHT22;25367;-35.352;149.036;2023-05-19T05:48:36;20.70;54.00
39695;DHT22;25367;-35.352;149.036;2023-05-19T05:51:07;20.70;53.90
39695;DHT22;25367;-35.352;149.036;2023-05-19T05:53:40;20.70;54.00
39695;DHT22;25367;-35.352;149.036;2023-05-19T05:56:11;20.70;53.90
39695;DHT22;25367;-35.352;149.036;2023-05-19T05:58:47;20.70;53.90
39695;DHT22;25367;-35.352;149.036;2023-05-19T06:01:17;20.70;53.70
39695;DHT22;25367;-35.352;149.036;2023-05-19T06:03:50;20.70;53.70
39695;DHT22;25367;-35.352;149.036;2023-05-19T06:06:23;20.70;53.80
39695;DHT22;25367;-35.352;149.036;2023-05-19T06:08:54;20.70;54.10
39695;DHT22;25367;-35.352;149.036;2023-05-19T06:11:25;20.70;54.20
39695;DHT22;25367;-35.352;149.036;2023-05-19T06:13:56;20.70;53.50
39695;DHT22;25367;-35.352;149.036;2023-05-19T06:16:45;20.70;53.50
39695;DHT22;25367;-35.352;149.036;2023-05-19T06:19:20;20.70;53.40
39695;DHT22;25367;-35.352;149.036;2023-05-19T06:21:51;20.70;53.40
39695;DHT22;25367;-35.352;149.036;2023-05-19T06:24:21;20.70;53.40
39695;DHT22;25367;-35.352;149.036;2023-05-19T06:26:52;20.70;53.20
39695;DHT22;25367;-35.352;149.036;2023-05-19T06:29:21;20.70;53.10
39695;DHT22;25367;-35.352;149.036;2023-05-19T06:31:52;20.70;53.10
39695;DHT22;25367;-35.352;149.036;2023-05-19T06:34:23;20.70;52.90
39695;DHT22;25367;-35.352;149.036;2023-05-19T06:36:53;20.70;53.00
39695;DHT22;25367;-35.352;149.036;2023-05-19T06:39:23;20.70;53.00
39695;DHT22;25367;-35.352;149.036;2023-05-19T06:41:52;20.70;52.90
39695;DHT22;25367;-35.352;149.036;2023-05-19T06:44:45;20.70;52.80
39695;DHT22;25367;-35.352;149.036;2023-05-19T06:47:14;20.60;52.70
39695;DHT22;25367;-35.352;149.036;2023-05-19T06:49:47;20.60;52.70
39695;DHT22;25367;-35.352;149.036;2023-05-19T06:52:16;20.70;53.30
39695;DHT22;25367;-35.352;149.036;2023-05-19T06:54:46;20.60;52.60
39695;DHT22;25367;-35.352;149.036;2023-05-19T06:57:15;20.60;52.40
39695;DHT22;25367;-35.352;149.036;2023-05-19T06:59:45;20.60;52.40
39695;DHT22;25367;-35.352;149.036;2023-05-19T07:02:15;20.60;52.30
39695;DHT22;25367;-35.352;149.036;2023-05-19T07:04:48;20.60;52.20
39695;DHT22;25367;-35.352;149.036;2023-05-19T07:07:18;20.70;52.20
39695;DHT22;25367;-35.352;149.036;2023-05-19T07:09:48;20.70;52.20
39695;DHT22;25367;-35.352;149.036;2023-05-19T07:12:19;20.60;52.10
39695;DHT22;25367;-35.352;149.036;2023-05-19T07:14:49;20.60;52.10
39695;DHT22;25367;-35.352;149.036;2023-05-19T07:17:19;20.60;52.10
39695;DHT22;25367;-35.352;149.036;2023-05-19T07:19:53;20.50;52.10
39695;DHT22;25367;-35.352;149.036;2023-05-19T07:22:22;20.60;52.20
39695;DHT22;25367;-35.352;149.036;2023-05-19T07:24:51;20.50;52.60
39695;DHT22;25367;-35.352;149.036;2023-05-19T07:27:21;20.40;52.30
39695;DHT22;25367;-35.352;149.036;2023-05-19T07:29:51;20.50;52.20
39695;DHT22;25367;-35.352;149.036;2023-05-19T07:32:20;20.40;52.10
39695;DHT22;25367;-35.352;149.036;2023-05-19T07:34:52;20.50;52.00
39695;DHT22;25367;-35.352;149.036;2023-05-19T07:37:22;20.50;51.80
39695;DHT22;25367;-35.352;149.036;2023-05-19T07:39:51;20.50;51.70
39695;DHT22;25367;-35.352;149.036;2023-05-19T07:42:21;20.40;51.80
39695;DHT22;25367;-35.352;149.036;2023-05-19T07:44:50;20.40;51.90
39695;DHT22;25367;-35.352;149.036;2023-05-19T07:47:20;20.50;51.90
39695;DHT22;25367;-35.352;149.036;2023-05-19T07:49:52;20.40;51.80
39695;DHT22;25367;-35.352;149.036;2023-05-19T07:52:22;20.40;51.80
39695;DHT22;25367;-35.352;149.036;2023-05-19T07:54:51;20.40;51.80
39695;DHT22;25367;-35.352;149.036;2023-05-19T07:57:21;20.40;51.80
39695;DHT22;25367;-35.352;149.036;2023-05-19T07:59:51;20.40;51.70
39695;DHT22;25367;-35.352;149.036;2023-05-19T08:02:20;20.40;51.80
39695;DHT22;25367;-35.352;149.036;2023-05-19T08:04:53;20.40;51.80
39695;DHT22;25367;-35.352;149.036;2023-05-19T08:07:22;20.30;51.80
39695;DHT22;25367;-35.352;149.036;2023-05-19T08:09:52;20.30;51.90
39695;DHT22;25367;-35.352;149.036;2023-05-19T08:12:21;20.30;51.80
39695;DHT22;25367;-35.352;149.036;2023-05-19T08:14:51;20.30;51.80
39695;DHT22;25367;-35.352;149.036;2023-05-19T08:17:20;20.30;51.90
39695;DHT22;25367;-35.352;149.036;2023-05-19T08:19:52;20.30;51.90
39695;DHT22;25367;-35.352;149.036;2023-05-19T08:22:22;20.30;51.90
39695;DHT22;25367;-35.352;149.036;2023-05-19T08:24:51;20.30;51.90
39695;DHT22;25367;-35.352;149.036;2023-05-19T08:27:21;20.20;51.80
39695;DHT22;25367;-35.352;149.036;2023-05-19T08:29:50;20.30;51.80
39695;DHT22;25367;-35.352;149.036;2023-05-19T08:32:20;20.30;52.00
39695;DHT22;25367;-35.352;149.036;2023-05-19T08:34:53;20.20;51.80
39695;DHT22;25367;-35.352;149.036;2023-05-19T08:37:22;20.20;51.90
39695;DHT22;25367;-35.352;149.036;2023-05-19T08:39:52;20.20;51.90
39695;DHT22;25367;-35.352;149.036;2023-05-19T08:42:21;20.20;51.90
39695;DHT22;25367;-35.352;149.036;2023-05-19T08:44:50;20.20;52.00
39695;DHT22;25367;-35.352;149.036;2023-05-19T08:47:20;20.20;52.00
39695;DHT22;25367;-35.352;149.036;2023-05-19T08:49:58;20.20;51.90
39695;DHT22;25367;-35.352;149.036;2023-05-19T08:52:37;20.20;51.90
39695;DHT22;25367;-35.352;149.036;2023-05-19T08:55:12;20.20;51.80
39695;DHT22;25367;-35.352;149.036;2023-05-19T08:57:43;20.20;51.90
39695;DHT22;25367;-35.352;149.036;2023-05-19T09:00:14;20.20;51.80
39695;DHT22;25367;-35.352;149.036;2023-05-19T09:02:44;20.20;51.70
39695;DHT22;25367;-35.352;149.036;2023-05-19T09:05:17;20.10;51.60
39695;DHT22;25367;-35.352;149.036;2023-05-19T09:07:46;20.10;51.70
39695;DHT22;25367;-35.352;149.036;2023-05-19T09:10:15;20.10;52.00
39695;DHT22;25367;-35.352;149.036;2023-05-19T09:12:46;20.10;52.00
39695;DHT22;25367;-35.352;149.036;2023-05-19T09:15:17;20.00;51.90
39695;DHT22;25367;-35.352;149.036;2023-05-19T09:17:46;20.10;51.80
39695;DHT22;25367;-35.352;149.036;2023-05-19T09:20:19;20.10;51.80
39695;DHT22;25367;-35.352;149.036;2023-05-19T09:22:49;20.10;51.70
39695;DHT22;25367;-35.352;149.036;2023-05-19T09:25:19;20.10;51.70
39695;DHT22;25367;-35.352;149.036;2023-05-19T09:27:50;20.10;51.70
39695;DHT22;25367;-35.352;149.036;2023-05-19T09:30:22;20.10;51.60
39695;DHT22;25367;-35.352;149.036;2023-05-19T09:32:52;20.00;51.60
39695;DHT22;25367;-35.352;149.036;2023-05-19T09:35:24;20.00;51.60
39695;DHT22;25367;-35.352;149.036;2023-05-19T09:37:55;20.00;51.50
39695;DHT22;25367;-35.352;149.036;2023-05-19T09:40:28;20.00;51.60
39695;DHT22;25367;-35.352;149.036;2023-05-19T09:42:58;20.00;52.20
39695;DHT22;25367;-35.352;149.036;2023-05-19T09:45:28;20.00;51.60
39695;DHT22;25367;-35.352;149.036;2023-05-19T09:48:03;20.00;51.80
39695;DHT22;25367;-35.352;149.036;2023-05-19T09:50:39;20.00;51.90
39695;DHT22;25367;-35.352;149.036;2023-05-19T09:53:08;20.00;52.10
39695;DHT22;25367;-35.352;149.036;2023-05-19T09:55:40;20.00;52.10
39695;DHT22;25367;-35.352;149.036;2023-05-19T09:58:10;19.90;51.80
39695;DHT22;25367;-35.352;149.036;2023-05-19T10:00:44;19.90;51.80
39695;DHT22;25367;-35.352;149.036;2023-05-19T10:03:14;19.90;52.00
39695;DHT22;25367;-35.352;149.036;2023-05-19T10:05:49;19.90;51.80
39695;DHT22;25367;-35.352;149.036;2023-05-19T10:08:18;19.90;51.80
39695;DHT22;25367;-35.352;149.036;2023-05-19T10:10:48;19.90;52.40
39695;DHT22;25367;-35.352;149.036;2023-05-19T10:13:18;19.90;51.80
39695;DHT22;25367;-35.352;149.036;2023-05-19T10:15:50;19.90;51.80
39695;DHT22;25367;-35.352;149.036;2023-05-19T10:18:21;19.90;51.80
39695;DHT22;25367;-35.352;149.036;2023-05-19T10:20:54;19.90;51.80
39695;DHT22;25367;-35.352;149.036;2023-05-19T10:23:24;19.90;51.80
39695;DHT22;25367;-35.352;149.036;2023-05-19T10:25:55;19.80;51.80
39695;DHT22;25367;-35.352;149.036;2023-05-19T10:28:33;19.90;51.80
39695;DHT22;25367;-35.352;149.036;2023-05-19T10:31:07;19.90;51.90
39695;DHT22;25367;-35.352;149.036;2023-05-19T10:33:46;19.80;51.80
39695;DHT22;25367;-35.352;149.036;2023-05-19T10:36:43;19.80;51.80
39695;DHT22;25367;-35.352;149.036;2023-05-19T10:39:17;19.80;51.80
39695;DHT22;25367;-35.352;149.036;2023-05-19T10:41:58;19.80;51.80
39695;DHT22;25367;-35.352;149.036;2023-05-19T10:44:50;19.80;51.80
39695;DHT22;25367;-35.352;149.036;2023-05-19T10:47:24;19.80;51.80
39695;DHT22;25367;-35.352;149.036;2023-05-19T10:49:54;19.80;51.70
39695;DHT22;25367;-35.352;149.036;2023-05-19T10:52:27;19.70;51.60
39695;DHT22;25367;-35.352;149.036;2023-05-19T10:54:58;19.80;51.70
39695;DHT22;25367;-35.352;149.036;2023-05-19T10:57:29;19.80;51.70
39695;DHT22;25367;-35.352;149.036;2023-05-19T10:59:59;19.70;51.60
39695;DHT22;25367;-35.352;149.036;2023-05-19T11:02:40;19.80;51.60
39695;DHT22;25367;-35.352;149.036;2023-05-19T11:05:11;19.70;51.60
39695;DHT22;25367;-35.352;149.036;2023-05-19T11:07:58;19.70;51.60
39695;DHT22;25367;-35.352;149.036;2023-05-19T11:10:28;19.70;51.70
39695;DHT22;25367;-35.352;149.036;2023-05-19T11:12:58;19.70;51.60
39695;DHT22;25367;-35.352;149.036;2023-05-19T11:15:27;19.70;51.50
39695;DHT22;25367;-35.352;149.036;2023-05-19T11:17:57;19.70;51.60
39695;DHT22;25367;-35.352;149.036;2023-05-19T11:20:29;19.70;51.50
39695;DHT22;25367;-35.352;149.036;2023-05-19T11:23:19;19.70;51.60
39695;DHT22;25367;-35.352;149.036;2023-05-19T11:25:49;19.70;51.60
39695;DHT22;25367;-35.352;149.036;2023-05-19T11:28:20;19.60;51.50
39695;DHT22;25367;-35.352;149.036;2023-05-19T11:30:49;19.60;51.50
39695;DHT22;25367;-35.352;149.036;2023-05-19T11:33:20;19.60;51.50
39695;DHT22;25367;-35.352;149.036;2023-05-19T11:35:50;19.60;51.50
39695;DHT22;25367;-35.352;149.036;2023-05-19T11:38:26;19.60;51.50
39695;DHT22;25367;-35.352;149.036;2023-05-19T11:40:57;19.60;51.50
39695;DHT22;25367;-35.352;149.036;2023-05-19T11:43:27;19.60;51.60
39695;DHT22;25367;-35.352;149.036;2023-05-19T11:45:56;19.60;51.50
39695;DHT22;25367;-35.352;149.036;2023-05-19T11:48:26;19.60;51.40
39695;DHT22;25367;-35.352;149.036;2023-05-19T11:50:56;19.50;51.30
39695;DHT22;25367;-35.352;149.036;2023-05-19T11:53:31;19.60;51.40
39695;DHT22;25367;-35.352;149.036;2023-05-19T11:56:04;19.50;51.60
39695;DHT22;25367;-35.352;149.036;2023-05-19T11:58:33;19.60;51.70
39695;DHT22;25367;-35.352;149.036;2023-05-19T12:01:05;19.50;51.90
39695;DHT22;25367;-35.352;149.036;2023-05-19T12:03:34;19.50;52.10
39695;DHT22;25367;-35.352;149.036;2023-05-19T12:06:06;19.50;52.30
39695;DHT22;25367;-35.352;149.036;2023-05-19T12:08:38;19.50;52.50
39695;DHT22;25367;-35.352;149.036;2023-05-19T12:11:09;19.60;52.70
39695;DHT22;25367;-35.352;149.036;2023-05-19T12:13:39;19.60;52.90
39695;DHT22;25367;-35.352;149.036;2023-05-19T12:16:09;19.60;53.10
39695;DHT22;25367;-35.352;149.036;2023-05-19T12:18:39;19.70;53.10
39695;DHT22;25367;-35.352;149.036;2023-05-19T12:21:08;19.70;53.10
39695;DHT22;25367;-35.352;149.036;2023-05-19T12:23:42;19.80;53.00
39695;DHT22;25367;-35.352;149.036;2023-05-19T12:26:10;19.80;52.80
39695;DHT22;25367;-35.352;149.036;2023-05-19T12:28:40;19.80;52.80
39695;DHT22;25367;-35.352;149.036;2023-05-19T12:31:10;19.80;52.90
39695;DHT22;25367;-35.352;149.036;2023-05-19T12:33:39;19.80;52.80
39695;DHT22;25367;-35.352;149.036;2023-05-19T12:36:09;19.90;52.80
39695;DHT22;25367;-35.352;149.036;2023-05-19T12:38:43;19.90;52.60
39695;DHT22;25367;-35.352;149.036;2023-05-19T12:41:13;19.90;52.50
39695;DHT22;25367;-35.352;149.036;2023-05-19T12:43:43;19.90;52.30
39695;DHT22;25367;-35.352;149.036;2023-05-19T12:46:12;19.90;52.40
39695;DHT22;25367;-35.352;149.036;2023-05-19T12:48:43;19.90;52.20
39695;DHT22;25367;-35.352;149.036;2023-05-19T12:51:17;19.90;52.10
39695;DHT22;25367;-35.352;149.036;2023-05-19T12:53:50;19.90;52.00
39695;DHT22;25367;-35.352;149.036;2023-05-19T12:56:19;19.90;52.00
39695;DHT22;25367;-35.352;149.036;2023-05-19T12:58:53;19.90;52.00
39695;DHT22;25367;-35.352;149.036;2023-05-19T13:01:23;19.90;51.90
39695;DHT22;25367;-35.352;149.036;2023-05-19T13:03:53;19.90;51.90
39695;DHT22;25367;-35.352;149.036;2023-05-19T13:06:22;19.90;51.80
39695;DHT22;25367;-35.352;149.036;2023-05-19T20:52:07;16.40;54.80
39695;DHT22;25367;-35.352;149.036;2023-05-19T20:54:36;16.40;55.70
39695;DHT22;25367;-35.352;149.036;2023-05-19T20:57:06;16.60;55.70
39695;DHT22;25367;-35.352;149.036;2023-05-19T20:59:35;16.70;55.50
39695;DHT22;25367;-35.352;149.036;2023-05-19T21:02:05;16.80;55.30
39695;DHT22;25367;-35.352;149.036;2023-05-19T21:04:34;16.90;55.10
39695;DHT22;25367;-35.352;149.036;2023-05-19T21:07:07;17.00;54.90
39695;DHT22;25367;-35.352;149.036;2023-05-19T21:09:37;17.10;54.80
39695;DHT22;25367;-35.352;149.036;2023-05-19T21:12:06;17.10;54.60
39695;DHT22;25367;-35.352;149.036;2023-05-19T21:14:36;17.20;54.60
39695;DHT22;25367;-35.352;149.036;2023-05-19T21:17:05;17.20;54.40
39695;DHT22;25367;-35.352;149.036;2023-05-19T21:19:36;17.30;54.30
39695;DHT22;25367;-35.352;149.036;2023-05-19T21:22:09;17.30;54.20
39695;DHT22;25367;-35.352;149.036;2023-05-19T21:24:39;17.30;54.10
39695;DHT22;25367;-35.352;149.036;2023-05-19T21:27:08;17.30;54.00
39695;DHT22;25367;-35.352;149.036;2023-05-19T21:29:38;17.30;53.90
39695;DHT22;25367;-35.352;149.036;2023-05-19T21:32:08;17.40;53.90
39695;DHT22;25367;-35.352;149.036;2023-05-19T21:34:37;17.30;53.60
39695;DHT22;25367;-35.352;149.036;2023-05-19T21:37:09;17.40;53.70
39695;DHT22;25367;-35.352;149.036;2023-05-19T21:39:39;17.40;53.80
39695;DHT22;25367;-35.352;149.036;2023-05-19T21:42:08;17.40;53.90
39695;DHT22;25367;-35.352;149.036;2023-05-19T21:44:38;17.50;54.00
39695;DHT22;25367;-35.352;149.036;2023-05-19T21:47:07;17.50;54.00
39695;DHT22;25367;-35.352;149.036;2023-05-19T21:49:37;17.60;54.10
39695;DHT22;25367;-35.352;149.036;2023-05-19T21:52:09;17.60;54.10
39695;DHT22;25367;-35.352;149.036;2023-05-19T21:54:38;17.70;54.10
39695;DHT22;25367;-35.352;149.036;2023-05-19T21:57:08;17.70;54.10
39695;DHT22;25367;-35.352;149.036;2023-05-19T21:59:37;17.80;54.00
39695;DHT22;25367;-35.352;149.036;2023-05-19T22:02:06;17.80;53.90
39695;DHT22;25367;-35.352;149.036;2023-05-19T22:04:36;17.80;53.90
39695;DHT22;25367;-35.352;149.036;2023-05-19T22:07:08;17.90;53.90
39695;DHT22;25367;-35.352;149.036;2023-05-19T22:09:37;17.90;53.80
39695;DHT22;25367;-35.352;149.036;2023-05-19T22:12:08;17.90;53.80
39695;DHT22;25367;-35.352;149.036;2023-05-19T22:14:37;17.90;53.70
39695;DHT22;25367;-35.352;149.036;2023-05-19T22:17:07;17.90;53.60
39695;DHT22;25367;-35.352;149.036;2023-05-19T22:19:36;18.00;53.70
39695;DHT22;25367;-35.352;149.036;2023-05-19T22:22:09;17.90;53.60
39695;DHT22;25367;-35.352;149.036;2023-05-19T22:24:38;18.00;53.60
39695;DHT22;25367;-35.352;149.036;2023-05-19T22:27:08;18.00;53.50
39695;DHT22;25367;-35.352;149.036;2023-05-19T22:29:38;18.00;53.60
39695;DHT22;25367;-35.352;149.036;2023-05-19T22:32:08;18.00;53.40
39695;DHT22;25367;-35.352;149.036;2023-05-19T22:34:37;18.00;53.40
39695;DHT22;25367;-35.352;149.036;2023-05-19T22:37:10;18.00;53.30
39695;DHT22;25367;-35.352;149.036;2023-05-19T22:39:40;18.00;53.40
39695;DHT22;25367;-35.352;149.036;2023-05-19T22:42:09;18.00;53.40
39695;DHT22;25367;-35.352;149.036;2023-05-19T22:44:39;18.00;53.40
39695;DHT22;25367;-35.352;149.036;2023-05-19T22:47:08;18.00;53.40
39695;DHT22;25367;-35.352;149.036;2023-05-19T22:49:38;18.00;53.30
39695;DHT22;25367;-35.352;149.036;2023-05-19T22:52:11;18.00;53.20
39695;DHT22;25367;-35.352;149.036;2023-05-19T22:54:40;18.00;53.10
39695;DHT22;25367;-35.352;149.036;2023-05-19T22:57:10;18.00;53.10
39695;DHT22;25367;-35.352;149.036;2023-05-19T22:59:39;18.00;53.10
39695;DHT22;25367;-35.352;149.036;2023-05-19T23:02:14;18.00;53.00